sensor_id;sensor_type;location;lat;lon;timestamp;P1;durP1;ratioP1;P2;durP2;ratioP2
85742;SDS011;76184;42.004;21.420;2024-03-17T00:01:56;24.80;;;12.75;;
85742;SDS011;76184;42.004;21.420;2024-03-17T00:04:22;23.27;;;13.27;;
85742;SDS011;76184;42.004;21.420;2024-03-17T00:06:48;20.50;;;13.35;;
85742;SDS011;76184;42.004;21.420;2024-03-17T00:09:15;23.27;;;14.52;;
85742;SDS011;76184;42.004;21.420;2024-03-17T00:11:41;24.05;;;14.50;;
85742;SDS011;76184;42.004;21.420;2024-03-17T00:14:07;19.25;;;13.93;;
85742;SDS011;76184;42.004;21.420;2024-03-17T00:16:33;21.45;;;14.00;;
85742;SDS011;76184;42.004;21.420;2024-03-17T00:18:59;26.75;;;15.00;;
85742;SDS011;76184;42.004;21.420;2024-03-17T00:21:26;20.70;;;14.13;;
85742;SDS011;76184;42.004;21.420;2024-03-17T00:23:52;22.77;;;14.25;;
85742;SDS011;76184;42.004;21.420;2024-03-17T00:26:19;20.75;;;13.98;;
85742;SDS011;76184;42.004;21.420;2024-03-17T00:28:46;23.23;;;15.32;;
85742;SDS011;76184;42.004;21.420;2024-03-17T00:31:15;21.92;;;14.73;;
85742;SDS011;76184;42.004;21.420;2024-03-17T00:33:41;20.67;;;14.80;;
85742;SDS011;76184;42.004;21.420;2024-03-17T00:36:09;22.58;;;14.88;;
85742;SDS011;76184;42.004;21.420;2024-03-17T00:38:35;23.73;;;15.82;;
85742;SDS011;76184;42.004;21.420;2024-03-17T00:41:04;29.48;;;17.45;;
85742;SDS011;76184;42.004;21.420;2024-03-17T00:43:31;28.05;;;17.23;;
85742;SDS011;76184;42.004;21.420;2024-03-17T00:45:57;27.13;;;18.27;;
85742;SDS011;76184;42.004;21.420;2024-03-17T00:48:24;29.70;;;19.35;;
85742;SDS011;76184;42.004;21.420;2024-03-17T00:50:56;30.55;;;18.70;;
85742;SDS011;76184;42.004;21.420;2024-03-17T00:53:23;29.08;;;17.58;;
85742;SDS011;76184;42.004;21.420;2024-03-17T00:55:52;31.38;;;18.63;;
85742;SDS011;76184;42.004;21.420;2024-03-17T00:58:21;33.33;;;18.85;;
85742;SDS011;76184;42.004;21.420;2024-03-17T01:00:48;29.88;;;19.98;;
85742;SDS011;76184;42.004;21.420;2024-03-17T01:03:14;29.40;;;20.45;;
85742;SDS011;76184;42.004;21.420;2024-03-17T01:05:41;31.15;;;20.48;;
85742;SDS011;76184;42.004;21.420;2024-03-17T01:08:09;26.50;;;18.70;;
85742;SDS011;76184;42.004;21.420;2024-03-17T01:10:38;29.83;;;19.02;;
85742;SDS011;76184;42.004;21.420;2024-03-17T01:13:07;29.27;;;19.13;;
85742;SDS011;76184;42.004;21.420;2024-03-17T01:15:35;28.30;;;18.25;;
85742;SDS011;76184;42.004;21.420;2024-03-17T01:18:02;27.70;;;19.27;;
85742;SDS011;76184;42.004;21.420;2024-03-17T01:20:29;26.75;;;18.30;;
85742;SDS011;76184;42.004;21.420;2024-03-17T01:22:55;29.52;;;19.00;;
85742;SDS011;76184;42.004;21.420;2024-03-17T01:25:22;28.92;;;19.80;;
85742;SDS011;76184;42.004;21.420;2024-03-17T01:27:48;32.80;;;20.10;;
85742;SDS011;76184;42.004;21.420;2024-03-17T01:30:14;32.58;;;20.38;;
85742;SDS011;76184;42.004;21.420;2024-03-17T01:32:40;31.25;;;20.58;;
85742;SDS011;76184;42.004;21.420;2024-03-17T01:35:06;38.45;;;21.60;;
85742;SDS011;76184;42.004;21.420;2024-03-17T01:37:33;30.40;;;22.33;;
85742;SDS011;76184;42.004;21.420;2024-03-17T01:39:59;33.28;;;21.33;;
85742;SDS011;76184;42.004;21.420;2024-03-17T01:42:25;30.85;;;20.83;;
85742;SDS011;76184;42.004;21.420;2024-03-17T01:44:51;29.92;;;19.35;;
85742;SDS011;76184;42.004;21.420;2024-03-17T01:47:18;29.20;;;19.15;;
85742;SDS011;76184;42.004;21.420;2024-03-17T01:49:47;20.98;;;14.50;;
85742;SDS011;76184;42.004;21.420;2024-03-17T01:52:15;19.80;;;13.45;;
85742;SDS011;76184;42.004;21.420;2024-03-17T01:54:41;17.60;;;12.88;;
85742;SDS011;76184;42.004;21.420;2024-03-17T01:57:07;20.65;;;11.93;;
85742;SDS011;76184;42.004;21.420;2024-03-17T01:59:34;21.63;;;12.73;;
85742;SDS011;76184;42.004;21.420;2024-03-17T02:02:01;18.60;;;12.90;;
85742;SDS011;76184;42.004;21.420;2024-03-17T02:04:28;18.35;;;12.10;;
85742;SDS011;76184;42.004;21.420;2024-03-17T02:06:55;17.55;;;11.60;;
85742;SDS011;76184;42.004;21.420;2024-03-17T02:09:21;15.15;;;10.55;;
85742;SDS011;76184;42.004;21.420;2024-03-17T02:11:47;16.23;;;10.88;;
85742;SDS011;76184;42.004;21.420;2024-03-17T02:14:13;16.35;;;11.40;;
85742;SDS011;76184;42.004;21.420;2024-03-17T02:16:42;14.38;;;10.15;;
85742;SDS011;76184;42.004;21.420;2024-03-17T02:19:08;17.38;;;11.10;;
85742;SDS011;76184;42.004;21.420;2024-03-17T02:21:35;14.35;;;9.05;;
85742;SDS011;76184;42.004;21.420;2024-03-17T02:24:02;14.60;;;10.15;;
85742;SDS011;76184;42.004;21.420;2024-03-17T02:26:29;14.73;;;9.27;;
85742;SDS011;76184;42.004;21.420;2024-03-17T02:28:55;15.82;;;9.05;;
85742;SDS011;76184;42.004;21.420;2024-03-17T02:31:21;15.57;;;9.82;;
85742;SDS011;76184;42.004;21.420;2024-03-17T02:33:47;13.57;;;9.85;;
85742;SDS011;76184;42.004;21.420;2024-03-17T02:36:13;13.30;;;9.55;;
85742;SDS011;76184;42.004;21.420;2024-03-17T02:38:42;14.73;;;9.50;;
85742;SDS011;76184;42.004;21.420;2024-03-17T02:41:27;11.50;;;7.93;;
85742;SDS011;76184;42.004;21.420;2024-03-17T02:43:53;12.35;;;8.13;;
85742;SDS011;76184;42.004;21.420;2024-03-17T02:46:20;11.18;;;7.00;;
85742;SDS011;76184;42.004;21.420;2024-03-17T02:48:49;10.93;;;7.40;;
85742;SDS011;76184;42.004;21.420;2024-03-17T02:51:17;11.35;;;7.90;;
85742;SDS011;76184;42.004;21.420;2024-03-17T02:53:44;12.98;;;8.75;;
85742;SDS011;76184;42.004;21.420;2024-03-17T02:56:11;17.60;;;9.32;;
85742;SDS011;76184;42.004;21.420;2024-03-17T02:58:37;13.20;;;8.10;;
85742;SDS011;76184;42.004;21.420;2024-03-17T03:01:04;11.63;;;8.40;;
85742;SDS011;76184;42.004;21.420;2024-03-17T03:03:31;11.50;;;8.30;;
85742;SDS011;76184;42.004;21.420;2024-03-17T03:05:57;13.02;;;8.70;;
85742;SDS011;76184;42.004;21.420;2024-03-17T03:08:25;13.45;;;8.63;;
85742;SDS011;76184;42.004;21.420;2024-03-17T03:10:52;13.20;;;8.90;;
85742;SDS011;76184;42.004;21.420;2024-03-17T03:13:18;12.90;;;8.55;;
85742;SDS011;76184;42.004;21.420;2024-03-17T03:15:46;13.68;;;8.98;;
85742;SDS011;76184;42.004;21.420;2024-03-17T03:18:13;15.75;;;9.05;;
85742;SDS011;76184;42.004;21.420;2024-03-17T03:20:39;13.23;;;8.55;;
85742;SDS011;76184;42.004;21.420;2024-03-17T03:23:05;15.38;;;9.18;;
85742;SDS011;76184;42.004;21.420;2024-03-17T03:25:31;12.98;;;8.52;;
85742;SDS011;76184;42.004;21.420;2024-03-17T03:27:57;14.80;;;9.07;;
85742;SDS011;76184;42.004;21.420;2024-03-17T03:30:24;13.57;;;9.05;;
85742;SDS011;76184;42.004;21.420;2024-03-17T03:32:50;12.05;;;7.78;;
85742;SDS011;76184;42.004;21.420;2024-03-17T03:35:16;14.05;;;8.50;;
85742;SDS011;76184;42.004;21.420;2024-03-17T03:37:42;13.75;;;8.60;;
85742;SDS011;76184;42.004;21.420;2024-03-17T03:40:08;12.75;;;7.97;;
85742;SDS011;76184;42.004;21.420;2024-03-17T03:42:47;11.88;;;8.05;;
85742;SDS011;76184;42.004;21.420;2024-03-17T03:45:13;12.45;;;8.05;;
85742;SDS011;76184;42.004;21.420;2024-03-17T03:47:40;11.88;;;7.30;;
85742;SDS011;76184;42.004;21.420;2024-03-17T03:50:07;13.45;;;7.70;;
85742;SDS011;76184;42.004;21.420;2024-03-17T03:52:37;10.65;;;6.90;;
85742;SDS011;76184;42.004;21.420;2024-03-17T03:55:05;10.95;;;7.55;;
85742;SDS011;76184;42.004;21.420;2024-03-17T03:57:33;12.35;;;7.72;;
85742;SDS011;76184;42.004;21.420;2024-03-17T03:59:59;12.52;;;7.60;;
85742;SDS011;76184;42.004;21.420;2024-03-17T04:02:26;11.30;;;7.30;;
85742;SDS011;76184;42.004;21.420;2024-03-17T04:04:56;11.00;;;6.72;;
85742;SDS011;76184;42.004;21.420;2024-03-17T04:07:23;13.57;;;7.72;;
85742;SDS011;76184;42.004;21.420;2024-03-17T04:09:49;11.85;;;7.05;;
85742;SDS011;76184;42.004;21.420;2024-03-17T04:12:15;13.35;;;7.70;;
85742;SDS011;76184;42.004;21.420;2024-03-17T04:14:41;12.35;;;7.38;;
85742;SDS011;76184;42.004;21.420;2024-03-17T04:17:10;10.05;;;6.68;;
85742;SDS011;76184;42.004;21.420;2024-03-17T04:19:36;12.48;;;7.68;;
85742;SDS011;76184;42.004;21.420;2024-03-17T04:22:02;10.77;;;6.65;;
85742;SDS011;76184;42.004;21.420;2024-03-17T04:24:28;10.45;;;6.80;;
85742;SDS011;76184;42.004;21.420;2024-03-17T04:26:54;12.15;;;7.18;;
85742;SDS011;76184;42.004;21.420;2024-03-17T04:29:20;13.70;;;7.63;;
85742;SDS011;76184;42.004;21.420;2024-03-17T04:31:46;13.00;;;7.63;;
85742;SDS011;76184;42.004;21.420;2024-03-17T04:34:14;11.35;;;7.47;;
85742;SDS011;76184;42.004;21.420;2024-03-17T04:36:40;11.32;;;6.70;;
85742;SDS011;76184;42.004;21.420;2024-03-17T04:39:06;11.23;;;6.88;;
85742;SDS011;76184;42.004;21.420;2024-03-17T04:41:33;11.52;;;6.95;;
85742;SDS011;76184;42.004;21.420;2024-03-17T04:43:59;11.27;;;7.10;;
85742;SDS011;76184;42.004;21.420;2024-03-17T04:46:25;14.80;;;6.68;;
85742;SDS011;76184;42.004;21.420;2024-03-17T04:48:51;10.80;;;6.88;;
85742;SDS011;76184;42.004;21.420;2024-03-17T04:51:18;11.27;;;7.78;;
85742;SDS011;76184;42.004;21.420;2024-03-17T04:53:44;10.68;;;7.78;;
85742;SDS011;76184;42.004;21.420;2024-03-17T04:56:10;12.10;;;7.43;;
85742;SDS011;76184;42.004;21.420;2024-03-17T04:58:36;10.52;;;7.60;;
85742;SDS011;76184;42.004;21.420;2024-03-17T05:01:06;11.70;;;6.82;;
85742;SDS011;76184;42.004;21.420;2024-03-17T05:03:32;13.40;;;6.50;;
85742;SDS011;76184;42.004;21.420;2024-03-17T05:06:02;10.82;;;7.22;;
85742;SDS011;76184;42.004;21.420;2024-03-17T05:08:29;12.07;;;7.18;;
85742;SDS011;76184;42.004;21.420;2024-03-17T05:11:02;13.73;;;8.82;;
85742;SDS011;76184;42.004;21.420;2024-03-17T05:13:32;12.45;;;8.10;;
85742;SDS011;76184;42.004;21.420;2024-03-17T05:15:59;11.40;;;7.63;;
85742;SDS011;76184;42.004;21.420;2024-03-17T05:18:25;12.18;;;7.75;;
85742;SDS011;76184;42.004;21.420;2024-03-17T05:21:01;10.57;;;7.18;;
85742;SDS011;76184;42.004;21.420;2024-03-17T05:23:29;10.48;;;7.60;;
85742;SDS011;76184;42.004;21.420;2024-03-17T05:25:55;14.02;;;6.75;;
85742;SDS011;76184;42.004;21.420;2024-03-17T05:28:22;11.80;;;6.88;;
85742;SDS011;76184;42.004;21.420;2024-03-17T05:30:49;11.30;;;7.25;;
85742;SDS011;76184;42.004;21.420;2024-03-17T05:33:18;11.45;;;7.38;;
85742;SDS011;76184;42.004;21.420;2024-03-17T05:35:56;10.32;;;7.10;;
85742;SDS011;76184;42.004;21.420;2024-03-17T05:38:22;13.63;;;7.22;;
85742;SDS011;76184;42.004;21.420;2024-03-17T05:41:13;12.25;;;7.43;;
85742;SDS011;76184;42.004;21.420;2024-03-17T05:43:38;13.25;;;7.53;;
85742;SDS011;76184;42.004;21.420;2024-03-17T05:46:05;10.50;;;6.90;;
85742;SDS011;76184;42.004;21.420;2024-03-17T05:48:38;11.05;;;6.50;;
85742;SDS011;76184;42.004;21.420;2024-03-17T05:51:04;11.23;;;6.55;;
85742;SDS011;76184;42.004;21.420;2024-03-17T05:53:31;10.65;;;6.90;;
85742;SDS011;76184;42.004;21.420;2024-03-17T05:56:00;10.88;;;6.82;;
85742;SDS011;76184;42.004;21.420;2024-03-17T05:58:27;11.00;;;6.57;;
85742;SDS011;76184;42.004;21.420;2024-03-17T06:00:53;12.40;;;7.43;;
85742;SDS011;76184;42.004;21.420;2024-03-17T06:03:19;10.85;;;7.22;;
85742;SDS011;76184;42.004;21.420;2024-03-17T06:05:46;12.48;;;7.50;;
85742;SDS011;76184;42.004;21.420;2024-03-17T06:08:13;11.93;;;6.88;;
85742;SDS011;76184;42.004;21.420;2024-03-17T06:10:43;10.10;;;6.57;;
85742;SDS011;76184;42.004;21.420;2024-03-17T06:13:09;11.75;;;7.55;;
85742;SDS011;76184;42.004;21.420;2024-03-17T06:15:38;13.90;;;7.60;;
85742;SDS011;76184;42.004;21.420;2024-03-17T06:18:04;14.32;;;6.97;;
85742;SDS011;76184;42.004;21.420;2024-03-17T06:20:34;17.05;;;7.88;;
85742;SDS011;76184;42.004;21.420;2024-03-17T06:23:00;14.85;;;8.07;;
85742;SDS011;76184;42.004;21.420;2024-03-17T06:25:26;12.98;;;7.65;;
85742;SDS011;76184;42.004;21.420;2024-03-17T06:27:53;11.85;;;8.43;;
85742;SDS011;76184;42.004;21.420;2024-03-17T06:30:22;11.60;;;7.03;;
85742;SDS011;76184;42.004;21.420;2024-03-17T06:32:48;10.82;;;7.35;;
85742;SDS011;76184;42.004;21.420;2024-03-17T06:35:14;13.30;;;7.70;;
85742;SDS011;76184;42.004;21.420;2024-03-17T06:37:41;15.20;;;8.40;;
85742;SDS011;76184;42.004;21.420;2024-03-17T06:40:14;11.05;;;8.05;;
85742;SDS011;76184;42.004;21.420;2024-03-17T06:42:41;10.70;;;7.80;;
85742;SDS011;76184;42.004;21.420;2024-03-17T06:45:07;13.48;;;8.10;;
85742;SDS011;76184;42.004;21.420;2024-03-17T06:47:34;12.50;;;8.05;;
85742;SDS011;76184;42.004;21.420;2024-03-17T06:50:02;11.57;;;7.65;;
85742;SDS011;76184;42.004;21.420;2024-03-17T06:52:28;15.57;;;8.10;;
85742;SDS011;76184;42.004;21.420;2024-03-17T06:54:56;16.20;;;8.10;;
85742;SDS011;76184;42.004;21.420;2024-03-17T06:57:23;13.20;;;8.25;;
85742;SDS011;76184;42.004;21.420;2024-03-17T06:59:49;12.60;;;8.18;;
85742;SDS011;76184;42.004;21.420;2024-03-17T07:02:15;12.40;;;8.55;;
85742;SDS011;76184;42.004;21.420;2024-03-17T07:04:46;14.20;;;8.77;;
85742;SDS011;76184;42.004;21.420;2024-03-17T07:07:13;14.63;;;9.32;;
85742;SDS011;76184;42.004;21.420;2024-03-17T07:09:40;18.65;;;11.60;;
85742;SDS011;76184;42.004;21.420;2024-03-17T07:12:10;15.98;;;11.43;;
85742;SDS011;76184;42.004;21.420;2024-03-17T07:14:36;17.20;;;10.50;;
85742;SDS011;76184;42.004;21.420;2024-03-17T07:17:02;18.15;;;11.75;;
85742;SDS011;76184;42.004;21.420;2024-03-17T07:19:29;16.23;;;11.05;;
85742;SDS011;76184;42.004;21.420;2024-03-17T07:21:56;11.07;;;8.05;;
85742;SDS011;76184;42.004;21.420;2024-03-17T07:24:22;12.55;;;7.45;;
85742;SDS011;76184;42.004;21.420;2024-03-17T07:26:49;12.10;;;7.38;;
85742;SDS011;76184;42.004;21.420;2024-03-17T07:29:15;12.77;;;6.80;;
85742;SDS011;76184;42.004;21.420;2024-03-17T07:31:41;12.05;;;6.95;;
85742;SDS011;76184;42.004;21.420;2024-03-17T07:34:08;14.75;;;7.72;;
85742;SDS011;76184;42.004;21.420;2024-03-17T07:36:34;10.43;;;6.60;;
85742;SDS011;76184;42.004;21.420;2024-03-17T07:39:01;12.90;;;6.68;;
85742;SDS011;76184;42.004;21.420;2024-03-17T07:41:27;12.45;;;7.18;;
85742;SDS011;76184;42.004;21.420;2024-03-17T07:43:53;13.48;;;7.80;;
85742;SDS011;76184;42.004;21.420;2024-03-17T07:46:19;13.20;;;6.90;;
85742;SDS011;76184;42.004;21.420;2024-03-17T07:48:46;13.68;;;7.97;;
85742;SDS011;76184;42.004;21.420;2024-03-17T07:51:13;10.82;;;6.53;;
85742;SDS011;76184;42.004;21.420;2024-03-17T07:53:40;10.65;;;6.88;;
85742;SDS011;76184;42.004;21.420;2024-03-17T07:56:17;10.88;;;5.93;;
85742;SDS011;76184;42.004;21.420;2024-03-17T07:58:43;16.42;;;6.93;;
85742;SDS011;76184;42.004;21.420;2024-03-17T08:01:13;14.73;;;7.32;;
85742;SDS011;76184;42.004;21.420;2024-03-17T08:03:40;13.10;;;6.80;;
85742;SDS011;76184;42.004;21.420;2024-03-17T08:06:09;12.85;;;6.65;;
85742;SDS011;76184;42.004;21.420;2024-03-17T08:08:36;11.05;;;7.20;;
85742;SDS011;76184;42.004;21.420;2024-03-17T08:11:02;12.32;;;6.30;;
85742;SDS011;76184;42.004;21.420;2024-03-17T08:13:29;12.60;;;7.10;;
85742;SDS011;76184;42.004;21.420;2024-03-17T08:16:00;14.05;;;6.30;;
85742;SDS011;76184;42.004;21.420;2024-03-17T08:18:27;11.98;;;6.55;;
85742;SDS011;76184;42.004;21.420;2024-03-17T08:20:53;11.52;;;6.50;;
85742;SDS011;76184;42.004;21.420;2024-03-17T08:23:20;12.00;;;6.38;;
85742;SDS011;76184;42.004;21.420;2024-03-17T08:25:56;9.60;;;6.78;;
85742;SDS011;76184;42.004;21.420;2024-03-17T08:28:22;9.07;;;5.88;;
85742;SDS011;76184;42.004;21.420;2024-03-17T08:30:58;9.32;;;6.18;;
85742;SDS011;76184;42.004;21.420;2024-03-17T08:33:24;11.85;;;6.60;;
85742;SDS011;76184;42.004;21.420;2024-03-17T08:36:04;11.85;;;7.25;;
85742;SDS011;76184;42.004;21.420;2024-03-17T08:38:32;8.68;;;5.28;;
85742;SDS011;76184;42.004;21.420;2024-03-17T08:41:02;10.27;;;6.00;;
85742;SDS011;76184;42.004;21.420;2024-03-17T08:43:30;8.18;;;5.53;;
85742;SDS011;76184;42.004;21.420;2024-03-17T08:45:56;9.45;;;5.40;;
85742;SDS011;76184;42.004;21.420;2024-03-17T08:48:25;11.93;;;5.90;;
85742;SDS011;76184;42.004;21.420;2024-03-17T08:50:51;12.57;;;6.70;;
85742;SDS011;76184;42.004;21.420;2024-03-17T08:53:18;13.52;;;6.82;;
85742;SDS011;76184;42.004;21.420;2024-03-17T08:55:44;12.00;;;6.75;;
85742;SDS011;76184;42.004;21.420;2024-03-17T08:58:10;12.00;;;7.15;;
85742;SDS011;76184;42.004;21.420;2024-03-17T09:00:37;7.70;;;5.05;;
85742;SDS011;76184;42.004;21.420;2024-03-17T09:03:03;12.65;;;6.90;;
85742;SDS011;76184;42.004;21.420;2024-03-17T09:05:32;11.82;;;6.60;;
85742;SDS011;76184;42.004;21.420;2024-03-17T09:07:58;11.85;;;6.00;;
85742;SDS011;76184;42.004;21.420;2024-03-17T09:10:26;11.57;;;5.85;;
85742;SDS011;76184;42.004;21.420;2024-03-17T09:12:52;7.47;;;4.50;;
85742;SDS011;76184;42.004;21.420;2024-03-17T09:15:18;10.43;;;5.25;;
85742;SDS011;76184;42.004;21.420;2024-03-17T09:17:45;9.73;;;5.47;;
85742;SDS011;76184;42.004;21.420;2024-03-17T09:20:11;11.30;;;6.45;;
85742;SDS011;76184;42.004;21.420;2024-03-17T09:22:40;11.23;;;5.65;;
85742;SDS011;76184;42.004;21.420;2024-03-17T09:25:06;10.95;;;4.78;;
85742;SDS011;76184;42.004;21.420;2024-03-17T09:27:32;10.43;;;5.05;;
85742;SDS011;76184;42.004;21.420;2024-03-17T09:30:02;8.70;;;4.75;;
85742;SDS011;76184;42.004;21.420;2024-03-17T09:32:31;12.50;;;4.20;;
85742;SDS011;76184;42.004;21.420;2024-03-17T09:34:57;8.73;;;4.45;;
85742;SDS011;76184;42.004;21.420;2024-03-17T09:37:24;7.40;;;4.25;;
85742;SDS011;76184;42.004;21.420;2024-03-17T09:39:50;7.75;;;4.30;;
85742;SDS011;76184;42.004;21.420;2024-03-17T09:42:17;8.73;;;4.68;;
85742;SDS011;76184;42.004;21.420;2024-03-17T09:44:47;8.57;;;4.65;;
85742;SDS011;76184;42.004;21.420;2024-03-17T09:47:19;7.32;;;4.22;;
85742;SDS011;76184;42.004;21.420;2024-03-17T09:49:48;7.90;;;4.90;;
85742;SDS011;76184;42.004;21.420;2024-03-17T09:52:32;8.55;;;4.68;;
85742;SDS011;76184;42.004;21.420;2024-03-17T09:55:00;8.23;;;5.13;;
85742;SDS011;76184;42.004;21.420;2024-03-17T09:57:27;11.00;;;6.13;;
85742;SDS011;76184;42.004;21.420;2024-03-17T09:59:55;10.35;;;5.50;;
85742;SDS011;76184;42.004;21.420;2024-03-17T10:02:21;7.95;;;5.20;;
85742;SDS011;76184;42.004;21.420;2024-03-17T10:04:48;10.48;;;5.50;;
85742;SDS011;76184;42.004;21.420;2024-03-17T10:07:14;10.38;;;6.13;;
85742;SDS011;76184;42.004;21.420;2024-03-17T10:09:41;10.23;;;6.03;;
85742;SDS011;76184;42.004;21.420;2024-03-17T10:12:30;11.27;;;6.25;;
85742;SDS011;76184;42.004;21.420;2024-03-17T10:14:58;10.55;;;6.25;;
85742;SDS011;76184;42.004;21.420;2024-03-17T10:17:31;15.45;;;6.93;;
85742;SDS011;76184;42.004;21.420;2024-03-17T10:20:13;10.85;;;7.32;;
85742;SDS011;76184;42.004;21.420;2024-03-17T10:22:41;12.75;;;6.88;;
85742;SDS011;76184;42.004;21.420;2024-03-17T10:25:23;11.30;;;6.18;;
85742;SDS011;76184;42.004;21.420;2024-03-17T10:27:49;9.65;;;6.07;;
85742;SDS011;76184;42.004;21.420;2024-03-17T10:30:18;13.32;;;7.85;;
85742;SDS011;76184;42.004;21.420;2024-03-17T10:32:53;13.27;;;7.68;;
85742;SDS011;76184;42.004;21.420;2024-03-17T10:35:30;13.60;;;7.57;;
85742;SDS011;76184;42.004;21.420;2024-03-17T10:38:00;14.43;;;7.45;;
85742;SDS011;76184;42.004;21.420;2024-03-17T10:40:27;12.52;;;6.70;;
85742;SDS011;76184;42.004;21.420;2024-03-17T10:42:55;14.32;;;7.18;;
85742;SDS011;76184;42.004;21.420;2024-03-17T10:45:21;13.27;;;8.00;;
85742;SDS011;76184;42.004;21.420;2024-03-17T10:47:48;14.25;;;8.00;;
85742;SDS011;76184;42.004;21.420;2024-03-17T10:52:44;16.83;;;8.45;;
85742;SDS011;76184;42.004;21.420;2024-03-17T10:55:11;13.18;;;7.85;;
85742;SDS011;76184;42.004;21.420;2024-03-17T10:57:46;11.55;;;7.20;;
85742;SDS011;76184;42.004;21.420;2024-03-17T11:00:16;13.05;;;7.07;;
85742;SDS011;76184;42.004;21.420;2024-03-17T11:02:43;12.60;;;7.40;;
85742;SDS011;76184;42.004;21.420;2024-03-17T11:05:28;11.57;;;6.93;;
85742;SDS011;76184;42.004;21.420;2024-03-17T11:07:57;13.30;;;8.82;;
85742;SDS011;76184;42.004;21.420;2024-03-17T11:10:30;13.82;;;8.75;;
85742;SDS011;76184;42.004;21.420;2024-03-17T11:13:00;14.13;;;7.78;;
85742;SDS011;76184;42.004;21.420;2024-03-17T11:23:02;11.13;;;6.32;;
85742;SDS011;76184;42.004;21.420;2024-03-17T11:27:56;14.57;;;7.97;;
85742;SDS011;76184;42.004;21.420;2024-03-17T11:38:58;13.98;;;7.60;;
85742;SDS011;76184;42.004;21.420;2024-03-17T11:49:26;12.48;;;6.63;;
85742;SDS011;76184;42.004;21.420;2024-03-17T11:51:53;12.27;;;8.00;;
85742;SDS011;76184;42.004;21.420;2024-03-17T11:54:20;10.98;;;6.72;;
85742;SDS011;76184;42.004;21.420;2024-03-17T11:56:48;13.80;;;7.50;;
85742;SDS011;76184;42.004;21.420;2024-03-17T11:59:14;14.70;;;8.60;;
85742;SDS011;76184;42.004;21.420;2024-03-17T12:01:43;16.13;;;8.57;;
85742;SDS011;76184;42.004;21.420;2024-03-17T12:04:09;13.00;;;7.70;;
85742;SDS011;76184;42.004;21.420;2024-03-17T12:06:35;13.85;;;8.73;;
85742;SDS011;76184;42.004;21.420;2024-03-17T12:09:09;12.35;;;8.00;;
85742;SDS011;76184;42.004;21.420;2024-03-17T12:11:35;13.45;;;8.82;;
85742;SDS011;76184;42.004;21.420;2024-03-17T12:14:11;14.13;;;9.15;;
85742;SDS011;76184;42.004;21.420;2024-03-17T12:16:38;12.23;;;7.85;;
85742;SDS011;76184;42.004;21.420;2024-03-17T12:19:08;12.63;;;7.85;;
85742;SDS011;76184;42.004;21.420;2024-03-17T12:21:35;13.25;;;7.95;;
85742;SDS011;76184;42.004;21.420;2024-03-17T12:24:01;11.52;;;6.45;;
85742;SDS011;76184;42.004;21.420;2024-03-17T12:26:28;13.02;;;7.60;;
85742;SDS011;76184;42.004;21.420;2024-03-17T12:28:55;10.02;;;6.97;;
85742;SDS011;76184;42.004;21.420;2024-03-17T12:31:22;10.85;;;7.32;;
85742;SDS011;76184;42.004;21.420;2024-03-17T12:33:48;12.57;;;7.47;;
85742;SDS011;76184;42.004;21.420;2024-03-17T12:36:14;12.80;;;8.65;;
85742;SDS011;76184;42.004;21.420;2024-03-17T12:38:40;11.07;;;7.43;;
85742;SDS011;76184;42.004;21.420;2024-03-17T12:41:15;11.63;;;7.90;;
85742;SDS011;76184;42.004;21.420;2024-03-17T12:43:48;16.02;;;9.82;;
85742;SDS011;76184;42.004;21.420;2024-03-17T12:46:14;12.80;;;8.35;;
85742;SDS011;76184;42.004;21.420;2024-03-17T12:48:40;12.75;;;7.65;;
85742;SDS011;76184;42.004;21.420;2024-03-17T12:51:13;12.32;;;7.40;;
85742;SDS011;76184;42.004;21.420;2024-03-17T12:53:39;9.10;;;6.40;;
85742;SDS011;76184;42.004;21.420;2024-03-17T12:56:05;10.65;;;6.45;;
85742;SDS011;76184;42.004;21.420;2024-03-17T12:58:50;9.98;;;6.35;;
85742;SDS011;76184;42.004;21.420;2024-03-17T13:01:35;9.23;;;6.30;;
85742;SDS011;76184;42.004;21.420;2024-03-17T13:04:05;11.85;;;7.45;;
85742;SDS011;76184;42.004;21.420;2024-03-17T13:06:34;10.80;;;7.07;;
85742;SDS011;76184;42.004;21.420;2024-03-17T13:09:00;10.13;;;6.70;;
85742;SDS011;76184;42.004;21.420;2024-03-17T13:11:26;10.57;;;6.28;;
85742;SDS011;76184;42.004;21.420;2024-03-17T13:13:53;10.30;;;6.90;;
85742;SDS011;76184;42.004;21.420;2024-03-17T13:16:20;9.38;;;6.20;;
85742;SDS011;76184;42.004;21.420;2024-03-17T13:18:46;10.20;;;6.60;;
85742;SDS011;76184;42.004;21.420;2024-03-17T13:21:12;11.50;;;6.68;;
85742;SDS011;76184;42.004;21.420;2024-03-17T13:23:38;10.13;;;6.80;;
85742;SDS011;76184;42.004;21.420;2024-03-17T13:26:04;11.07;;;7.72;;
85742;SDS011;76184;42.004;21.420;2024-03-17T13:28:31;14.40;;;9.40;;
85742;SDS011;76184;42.004;21.420;2024-03-17T13:30:57;13.70;;;8.00;;
85742;SDS011;76184;42.004;21.420;2024-03-17T13:33:24;11.13;;;7.10;;
85742;SDS011;76184;42.004;21.420;2024-03-17T13:35:50;12.77;;;7.07;;
85742;SDS011;76184;42.004;21.420;2024-03-17T13:38:16;11.13;;;7.00;;
85742;SDS011;76184;42.004;21.420;2024-03-17T13:40:42;15.00;;;8.27;;
85742;SDS011;76184;42.004;21.420;2024-03-17T13:43:08;10.63;;;7.32;;
85742;SDS011;76184;42.004;21.420;2024-03-17T13:45:38;11.85;;;7.40;;
85742;SDS011;76184;42.004;21.420;2024-03-17T13:48:05;10.20;;;5.20;;
85742;SDS011;76184;42.004;21.420;2024-03-17T13:50:31;9.05;;;6.50;;
85742;SDS011;76184;42.004;21.420;2024-03-17T13:52:58;9.63;;;5.88;;
85742;SDS011;76184;42.004;21.420;2024-03-17T13:55:28;9.60;;;6.03;;
85742;SDS011;76184;42.004;21.420;2024-03-17T13:57:56;9.98;;;6.20;;
85742;SDS011;76184;42.004;21.420;2024-03-17T14:00:24;8.32;;;5.30;;
85742;SDS011;76184;42.004;21.420;2024-03-17T14:02:51;8.95;;;5.15;;
85742;SDS011;76184;42.004;21.420;2024-03-17T14:05:27;10.50;;;6.15;;
85742;SDS011;76184;42.004;21.420;2024-03-17T14:07:53;12.05;;;6.22;;
85742;SDS011;76184;42.004;21.420;2024-03-17T14:10:21;9.98;;;7.10;;
85742;SDS011;76184;42.004;21.420;2024-03-17T14:12:48;9.98;;;6.43;;
85742;SDS011;76184;42.004;21.420;2024-03-17T14:15:14;8.63;;;5.55;;
85742;SDS011;76184;42.004;21.420;2024-03-17T14:17:42;9.75;;;5.93;;
85742;SDS011;76184;42.004;21.420;2024-03-17T14:20:09;9.40;;;5.75;;
85742;SDS011;76184;42.004;21.420;2024-03-17T14:22:41;11.05;;;6.07;;
85742;SDS011;76184;42.004;21.420;2024-03-17T14:25:09;10.07;;;6.70;;
85742;SDS011;76184;42.004;21.420;2024-03-17T14:27:36;10.80;;;6.55;;
85742;SDS011;76184;42.004;21.420;2024-03-17T14:30:03;10.40;;;6.55;;
85742;SDS011;76184;42.004;21.420;2024-03-17T14:32:29;9.45;;;5.55;;
85742;SDS011;76184;42.004;21.420;2024-03-17T14:34:55;9.38;;;5.85;;
85742;SDS011;76184;42.004;21.420;2024-03-17T14:37:22;9.10;;;6.10;;
85742;SDS011;76184;42.004;21.420;2024-03-17T14:39:48;10.32;;;6.85;;
85742;SDS011;76184;42.004;21.420;2024-03-17T14:42:15;10.13;;;6.82;;
85742;SDS011;76184;42.004;21.420;2024-03-17T14:44:41;12.05;;;6.43;;
85742;SDS011;76184;42.004;21.420;2024-03-17T14:47:07;11.07;;;7.03;;
85742;SDS011;76184;42.004;21.420;2024-03-17T14:49:33;10.73;;;6.70;;
85742;SDS011;76184;42.004;21.420;2024-03-17T14:51:59;10.00;;;6.43;;
85742;SDS011;76184;42.004;21.420;2024-03-17T14:54:26;11.80;;;6.32;;